createdAt,value
2018-06-05T00:02:14.879Z,67.83
2018-06-05T00:04:44.405Z,67.67
2018-06-05T00:07:14.134Z,67.79
2018-06-05T00:09:43.824Z,68.23
2018-06-05T00:12:13.365Z,68.55
2018-06-05T00:14:43.308Z,68.91
2018-06-05T00:17:13.000Z,69.26
2018-06-05T00:19:42.733Z,68.76
2018-06-05T00:22:12.126Z,69.46
2018-06-05T00:24:41.789Z,71.08
2018-06-05T00:27:11.360Z,70.94
2018-06-05T00:29:41.382Z,71.30
2018-06-05T00:32:10.901Z,71.60
2018-06-05T00:34:40.677Z,72.08
2018-06-05T00:37:10.541Z,72.24
2018-06-05T00:39:40.012Z,72.51
2018-06-05T00:42:09.639Z,72.74
2018-06-05T00:44:39.537Z,73.04
2018-06-05T00:47:09.022Z,73.12
2018-06-05T00:49:38.432Z,73.20
2018-06-05T00:52:09.910Z,73.27
2018-06-05T00:54:39.550Z,73.31
2018-06-05T00:57:08.989Z,73.61
2018-06-05T00:59:38.456Z,74.02
2018-06-05T01:02:07.968Z,74.43
2018-06-05T01:04:38.095Z,74.48
2018-06-05T01:07:07.759Z,74.30
2018-06-05T01:09:37.313Z,74.31
2018-06-05T01:12:10.011Z,73.15
2018-06-05T01:14:40.176Z,73.13
2018-06-05T01:17:10.825Z,73.83
2018-06-05T01:19:40.629Z,73.97
2018-06-05T01:22:10.524Z,73.83
2018-06-05T01:24:40.104Z,74.61
2018-06-05T01:27:14.093Z,74.93
2018-06-05T01:29:43.729Z,75.64
2018-06-05T01:32:13.291Z,75.90
2018-06-05T01:34:43.500Z,74.18
2018-06-05T01:37:13.240Z,73.58
2018-06-05T01:39:42.777Z,72.56
2018-06-05T01:42:12.625Z,70.05
2018-06-05T01:44:42.448Z,71.19
2018-06-05T01:47:12.092Z,73.42
2018-06-05T01:49:42.212Z,72.08
2018-06-05T01:52:12.978Z,72.18
2018-06-05T01:54:44.784Z,73.65
2018-06-05T01:57:16.547Z,72.51
2018-06-05T01:59:46.099Z,75.04
2018-06-05T02:02:15.618Z,75.53
2018-06-05T02:04:45.679Z,75.66
2018-06-05T02:07:15.402Z,75.64
2018-06-05T02:09:44.887Z,75.85
2018-06-05T02:12:14.871Z,76.28
2018-06-05T02:14:44.407Z,77.24
2018-06-05T02:17:13.968Z,78.46
2018-06-05T02:19:43.983Z,79.25
2018-06-05T02:22:13.478Z,79.84
2018-06-05T02:24:43.008Z,79.35
2018-06-05T02:27:12.707Z,80.05
2018-06-05T02:29:42.284Z,80.50
2018-06-05T02:32:11.796Z,80.69
2018-06-05T02:34:41.685Z,80.38
2018-06-05T02:37:11.392Z,80.44
2018-06-05T02:39:40.987Z,79.75
2018-06-05T02:42:11.009Z,80.50
2018-06-05T02:44:40.562Z,78.85
2018-06-05T02:47:10.270Z,76.19
2018-06-05T02:49:40.340Z,74.21
2018-06-05T02:52:10.044Z,73.52
2018-06-05T02:54:39.599Z,76.26
2018-06-05T02:57:09.516Z,77.08
2018-06-05T02:59:39.177Z,76.18
2018-06-05T03:02:08.977Z,78.62
2018-06-05T03:04:39.030Z,77.67
2018-06-05T03:07:09.029Z,79.17
2018-06-05T03:09:38.750Z,79.41
2018-06-05T03:12:08.796Z,79.48
2018-06-05T03:14:38.628Z,79.99
2018-06-05T03:17:08.197Z,79.19
2018-06-05T03:19:38.010Z,79.45
2018-06-05T03:22:07.574Z,79.15
2018-06-05T03:24:37.303Z,78.40
2018-06-05T03:27:07.448Z,78.12
2018-06-05T03:29:37.106Z,78.11
2018-06-05T03:32:06.667Z,77.25
2018-06-05T03:34:36.203Z,77.97
2018-06-05T03:37:05.764Z,77.51
2018-06-05T03:39:35.330Z,77.76
2018-06-05T03:42:04.596Z,77.97
2018-06-05T03:44:33.858Z,77.86
2018-06-05T03:47:03.554Z,76.13
2018-06-05T03:49:38.019Z,75.69
2018-06-05T03:52:07.386Z,76.86
2018-06-05T03:54:37.189Z,77.51
2018-06-05T03:57:06.897Z,77.55
2018-06-05T03:59:36.540Z,78.07
2018-06-05T04:02:05.969Z,78.63
2018-06-05T04:04:35.432Z,78.60
2018-06-05T04:07:05.834Z,78.73
2018-06-05T04:09:35.083Z,78.32
2018-06-05T04:12:04.325Z,79.16
2018-06-05T04:14:33.902Z,79.00
2018-06-05T04:17:03.538Z,79.12
2018-06-05T04:19:33.080Z,79.60
2018-06-05T04:22:02.977Z,80.14
2018-06-05T04:24:32.408Z,80.16
2018-06-05T04:27:02.090Z,77.58
2018-06-05T04:29:31.504Z,78.27
2018-06-05T04:32:00.938Z,78.18
2018-06-05T04:34:30.536Z,77.92
2018-06-05T04:37:00.104Z,77.85
2018-06-05T04:39:30.192Z,74.67
2018-06-05T04:42:04.536Z,76.91
2018-06-05T04:44:34.507Z,74.57
2018-06-05T04:47:07.868Z,71.88
2018-06-05T04:49:38.139Z,74.12
2018-06-05T04:52:10.110Z,72.17
2018-06-05T04:54:39.527Z,76.12
2018-06-05T04:57:10.778Z,72.92
2018-06-05T04:59:40.287Z,70.17
2018-06-05T05:02:09.587Z,69.75
2018-06-05T05:04:39.602Z,72.75
2018-06-05T05:07:09.423Z,70.58
2018-06-05T05:09:39.032Z,72.63
2018-06-05T05:12:08.733Z,69.39
2018-06-05T05:14:37.989Z,70.31
2018-06-05T05:17:09.140Z,72.53
2018-06-05T05:19:39.223Z,74.78
2018-06-05T05:22:08.892Z,72.05
2018-06-05T05:24:38.203Z,73.97
2018-06-05T05:27:08.518Z,75.38
2018-06-05T05:29:40.736Z,77.15
2018-06-05T05:32:12.101Z,73.44
2018-06-05T05:34:42.152Z,73.19
2018-06-05T05:37:11.864Z,74.02
2018-06-05T05:39:41.931Z,72.46
2018-06-05T05:42:11.796Z,75.54
2018-06-05T05:44:42.191Z,76.06
2018-06-05T05:47:12.156Z,76.52
2018-06-05T05:49:41.468Z,74.82
2018-06-05T05:52:10.773Z,75.06
2018-06-05T05:54:40.449Z,76.81
2018-06-05T05:57:10.097Z,77.36
2018-06-05T05:59:39.777Z,76.71
2018-06-05T06:02:09.815Z,76.69
2018-06-05T06:04:39.175Z,76.07
2018-06-05T06:07:08.540Z,77.55
2018-06-05T06:09:38.320Z,77.72
2018-06-05T06:12:08.031Z,77.00
2018-06-05T06:14:37.310Z,76.23
2018-06-05T06:17:07.132Z,75.95
2018-06-05T06:19:36.615Z,76.01
2018-06-05T06:22:06.279Z,76.58
2018-06-05T06:24:36.215Z,77.42
2018-06-05T06:27:05.529Z,77.99
2018-06-05T06:29:35.136Z,77.79
2018-06-05T06:32:04.696Z,75.21
2018-06-05T06:34:34.051Z,75.50
2018-06-05T06:37:03.728Z,77.43
2018-06-05T06:39:33.364Z,77.92
2018-06-05T06:42:03.093Z,77.20
2018-06-05T06:44:33.060Z,76.54
2018-06-05T06:47:02.640Z,76.63
2018-06-05T06:49:31.958Z,73.91
2018-06-05T06:52:01.221Z,77.02
2018-06-05T06:54:30.782Z,74.31
2018-06-05T06:57:00.434Z,77.56
2018-06-05T06:59:30.556Z,75.79
2018-06-05T07:02:00.176Z,72.85
2018-06-05T07:04:29.943Z,74.22
2018-06-05T07:06:59.214Z,72.71
2018-06-05T07:09:28.779Z,74.98
2018-06-05T07:11:58.019Z,75.02
2018-06-05T07:14:27.561Z,75.57
2018-06-05T07:16:57.099Z,76.96
2018-06-05T07:19:27.426Z,77.51
2018-06-05T07:21:56.879Z,76.54
2018-06-05T07:24:26.658Z,79.28
2018-06-05T07:26:55.935Z,78.78
2018-06-05T07:29:25.459Z,79.51
2018-06-05T07:31:54.958Z,79.72
2018-06-05T07:34:24.670Z,75.98
2018-06-05T07:36:53.966Z,78.75
2018-06-05T07:39:23.336Z,79.24
2018-06-05T07:41:52.901Z,79.07
2018-06-05T07:44:22.533Z,79.67
2018-06-05T07:46:52.297Z,80.04
2018-06-05T07:49:22.227Z,79.49
2018-06-05T07:51:51.980Z,78.64
2018-06-05T07:54:22.055Z,77.25
2018-06-05T07:56:51.596Z,77.71
2018-06-05T07:59:21.093Z,79.87
2018-06-05T08:01:50.371Z,81.52
2018-06-05T08:04:19.944Z,80.98
2018-06-05T08:06:49.608Z,80.18
2018-06-05T08:09:19.614Z,81.04
2018-06-05T08:11:48.888Z,81.76
2018-06-05T08:14:18.342Z,82.22
2018-06-05T08:16:51.371Z,80.08
2018-06-05T08:19:20.979Z,81.00
2018-06-05T08:21:50.491Z,82.32
2018-06-05T08:24:20.705Z,80.98
2018-06-05T08:26:52.503Z,81.06
2018-06-05T08:29:22.372Z,79.36
2018-06-05T08:31:52.431Z,79.80
2018-06-05T08:34:21.886Z,78.86
2018-06-05T08:36:51.384Z,80.01
2018-06-05T08:39:20.955Z,79.74
2018-06-05T08:41:50.364Z,78.53
2018-06-05T08:44:19.866Z,78.99
2018-06-05T08:46:49.897Z,78.16
2018-06-05T08:49:19.394Z,78.64
2018-06-05T08:51:48.871Z,79.52
2018-06-05T08:54:19.082Z,78.67
2018-06-05T08:56:48.589Z,78.54
2018-06-05T08:59:17.823Z,76.52
2018-06-05T09:01:47.179Z,78.00
2018-06-05T09:04:16.427Z,75.70
2018-06-05T09:06:45.752Z,76.38
2018-06-05T09:09:15.543Z,75.61
2018-06-05T09:11:45.090Z,73.87
2018-06-05T09:14:14.439Z,77.19
2018-06-05T09:16:44.064Z,77.49
2018-06-05T09:19:13.817Z,76.10
2018-06-05T09:21:47.554Z,75.48
2018-06-05T09:24:17.900Z,72.02
2018-06-05T09:26:48.388Z,68.70
2018-06-05T09:29:19.084Z,71.82
2018-06-05T09:31:49.164Z,71.80
2018-06-05T09:34:18.721Z,73.24
2018-06-05T09:36:48.399Z,71.84
2018-06-05T09:39:18.774Z,65.63
2018-06-05T09:41:48.336Z,62.06
2018-06-05T09:44:18.041Z,62.63
2018-06-05T09:46:53.821Z,60.50
2018-06-05T09:49:23.235Z,57.35
2018-06-05T09:51:54.918Z,56.37
2018-06-05T09:54:29.828Z,56.43
2018-06-05T09:57:00.366Z,63.17
2018-06-05T09:59:33.408Z,64.04
2018-06-05T10:02:07.084Z,69.26
2018-06-05T10:04:38.238Z,62.10
2018-06-05T10:07:07.676Z,65.44
2018-06-05T10:09:42.436Z,62.16
2018-06-05T10:12:13.104Z,63.17
2018-06-05T10:14:44.998Z,62.25
2018-06-05T10:17:16.351Z,63.02
2018-06-05T10:19:49.016Z,64.77
2018-06-05T10:22:18.767Z,57.98
2018-06-05T10:24:48.584Z,61.52
2018-06-05T10:27:18.188Z,63.84
2018-06-05T10:29:47.800Z,60.18
2018-06-05T10:32:17.983Z,59.10
2018-06-05T10:34:47.569Z,57.64
2018-06-05T10:37:19.146Z,60.21
2018-06-05T10:39:48.471Z,60.98
2018-06-05T10:42:18.592Z,60.93
2018-06-05T10:44:48.558Z,61.30
2018-06-05T10:47:18.211Z,58.57
2018-06-05T10:49:47.718Z,59.79
2018-06-05T10:52:21.711Z,57.65
2018-06-05T10:54:55.469Z,56.56
2018-06-05T10:57:26.423Z,58.49
2018-06-05T10:59:56.114Z,59.07
2018-06-05T11:02:25.707Z,59.34
2018-06-05T11:04:59.256Z,59.47
2018-06-05T11:07:29.269Z,59.68
2018-06-05T11:10:02.610Z,56.17
2018-06-05T11:12:32.722Z,57.02
2018-06-05T11:15:02.221Z,58.83
2018-06-05T11:17:38.452Z,57.34
2018-06-05T11:20:07.854Z,58.19
2018-06-05T11:25:22.480Z,56.83
2018-06-05T11:27:58.155Z,56.04
2018-06-05T11:30:29.016Z,55.04
2018-06-05T11:33:10.426Z,53.82
2018-06-05T11:35:54.706Z,56.18
2018-06-05T11:38:29.874Z,54.94
2018-06-05T11:41:05.916Z,56.31
2018-06-05T11:43:36.576Z,57.00
2018-06-05T11:46:07.471Z,54.71
2018-06-05T11:48:37.341Z,57.14
2018-06-05T11:51:07.685Z,55.44
2018-06-05T11:53:37.560Z,50.43
2018-06-05T11:56:07.616Z,47.90
2018-06-05T11:58:36.952Z,49.80
2018-06-05T12:01:06.571Z,51.13
2018-06-05T12:03:36.451Z,51.76
2018-06-05T12:06:05.870Z,51.13
2018-06-05T12:08:35.707Z,52.46
2018-06-05T12:11:05.037Z,50.44
2018-06-05T12:13:34.611Z,51.83
2018-06-05T12:16:04.131Z,53.06
2018-06-05T12:18:33.534Z,52.84
2018-06-05T12:21:03.255Z,51.62
2018-06-05T12:23:32.708Z,49.29
2018-06-05T12:26:02.255Z,45.46
2018-06-05T12:28:31.727Z,47.36
2018-06-05T12:31:01.127Z,49.04
2018-06-05T12:33:33.317Z,46.83
2018-06-05T12:36:03.404Z,45.64
2018-06-05T12:38:33.327Z,48.99
2018-06-05T12:41:02.892Z,45.28
2018-06-05T12:43:33.081Z,51.12
2018-06-05T12:46:02.445Z,51.30
2018-06-05T12:48:31.992Z,49.59
2018-06-05T12:51:01.523Z,49.55
2018-06-05T12:53:31.055Z,48.31
2018-06-05T12:56:00.636Z,48.90
2018-06-05T12:58:30.535Z,49.22
2018-06-05T13:01:00.334Z,46.64
2018-06-05T13:03:31.253Z,50.39
2018-06-05T13:06:00.957Z,44.59
2018-06-05T13:08:31.407Z,43.82
2018-06-05T13:11:01.500Z,44.89
2018-06-05T13:13:32.547Z,47.78
2018-06-05T13:16:02.179Z,47.23
2018-06-05T13:18:32.437Z,43.32
2018-06-05T13:21:02.769Z,45.82
2018-06-05T13:23:32.222Z,43.65
2018-06-05T13:26:01.707Z,44.17
2018-06-05T13:28:31.623Z,46.01
2018-06-05T13:31:00.971Z,46.20
2018-06-05T13:33:31.409Z,49.85
2018-06-05T13:36:01.218Z,48.85
2018-06-05T13:38:32.392Z,47.89
2018-06-05T13:41:02.059Z,44.19
2018-06-05T13:43:31.609Z,47.34
2018-06-05T13:46:01.451Z,46.94
2018-06-05T13:48:30.783Z,45.44
2018-06-05T13:51:00.193Z,47.56
2018-06-05T13:53:30.090Z,48.14
2018-06-05T13:55:59.474Z,47.00
2018-06-05T13:58:29.008Z,47.43
2018-06-05T14:01:04.361Z,46.84
2018-06-05T14:03:34.107Z,46.94
2018-06-05T14:06:08.242Z,47.42
2018-06-05T14:08:37.936Z,45.62
2018-06-05T14:11:07.485Z,45.63
2018-06-05T14:13:37.466Z,46.97
2018-06-05T14:16:10.009Z,46.88
2018-06-05T14:18:39.628Z,48.21
2018-06-05T14:21:09.620Z,49.02
2018-06-05T14:23:39.325Z,46.12
2018-06-05T14:26:08.736Z,45.67
2018-06-05T14:28:38.563Z,44.53
2018-06-05T14:31:07.966Z,42.99
2018-06-05T14:33:37.726Z,42.24
2018-06-05T14:36:07.130Z,41.25
2018-06-05T14:38:36.753Z,43.58
2018-06-05T14:41:06.971Z,43.51
2018-06-05T14:43:36.479Z,43.46
2018-06-05T14:46:05.913Z,44.87
2018-06-05T14:48:35.981Z,42.74
2018-06-05T14:51:05.490Z,41.50
2018-06-05T14:53:34.984Z,40.98
2018-06-05T14:56:05.046Z,44.61
2018-06-05T14:58:34.934Z,43.51
2018-06-05T15:01:04.734Z,45.04
2018-06-05T15:03:34.667Z,44.46
2018-06-05T15:06:04.184Z,45.98
2018-06-05T15:08:33.555Z,45.64
2018-06-05T15:11:03.530Z,43.21
2018-06-05T15:13:32.938Z,43.32
2018-06-05T15:16:02.911Z,41.59
2018-06-05T15:18:33.960Z,41.85
2018-06-05T15:21:03.570Z,41.09
2018-06-05T15:23:33.710Z,40.87
2018-06-05T15:26:05.173Z,42.36
2018-06-05T15:28:38.067Z,42.38
2018-06-05T15:31:07.792Z,40.46
2018-06-05T15:33:39.598Z,41.75
2018-06-05T15:36:09.940Z,41.16
2018-06-05T15:38:41.720Z,42.76
2018-06-05T15:41:11.620Z,43.91
2018-06-05T15:43:45.079Z,43.34
2018-06-05T15:46:14.796Z,42.72
2018-06-05T15:48:44.995Z,42.19
2018-06-05T15:51:16.757Z,41.64
2018-06-05T15:53:47.933Z,41.20
2018-06-05T15:56:20.306Z,40.41
2018-06-05T15:58:49.753Z,41.71
2018-06-05T16:01:20.122Z,44.63
2018-06-05T16:03:53.351Z,42.26
2018-06-05T16:06:27.207Z,42.34
2018-06-05T16:08:59.478Z,42.43
2018-06-05T16:11:31.987Z,42.22
2018-06-05T16:14:03.079Z,41.96
2018-06-05T16:16:33.633Z,41.42
2018-06-05T16:19:06.495Z,41.40
2018-06-05T16:21:36.608Z,41.15
2018-06-05T16:24:07.893Z,42.42
2018-06-05T16:26:40.469Z,44.36
2018-06-05T16:29:13.447Z,43.82
2018-06-05T16:31:43.819Z,43.90
2018-06-05T16:34:15.412Z,42.56
2018-06-05T16:36:47.813Z,41.96
2018-06-05T16:39:19.745Z,41.81
2018-06-05T16:41:53.246Z,41.45
2018-06-05T16:44:26.570Z,43.55
2018-06-05T16:46:57.623Z,41.88
2018-06-05T16:49:29.609Z,44.31
2018-06-05T16:51:59.905Z,43.00
2018-06-05T16:54:29.628Z,44.13
2018-06-05T16:57:00.908Z,43.67
2018-06-05T16:59:31.202Z,43.46
2018-06-05T17:02:02.536Z,42.75
2018-06-05T17:04:35.309Z,43.09
2018-06-05T17:07:05.707Z,43.22
2018-06-05T17:09:37.345Z,45.01
2018-06-05T17:12:07.117Z,45.08
2018-06-05T17:14:36.503Z,43.38
2018-06-05T17:17:06.311Z,42.37
2018-06-05T17:19:35.996Z,42.22
2018-06-05T17:22:05.856Z,42.13
2018-06-05T17:24:39.040Z,41.74
2018-06-05T17:27:09.197Z,41.98
2018-06-05T17:29:41.138Z,41.44
2018-06-05T17:32:11.048Z,41.82
2018-06-05T17:34:41.598Z,41.84
2018-06-05T17:37:12.527Z,43.17
2018-06-05T17:39:43.619Z,42.32
2018-06-05T17:42:15.073Z,41.79
2018-06-05T17:44:44.852Z,42.40
2018-06-05T17:47:15.319Z,42.17
2018-06-05T17:49:44.931Z,41.62
2018-06-05T17:52:15.979Z,41.74
2018-06-05T17:54:45.350Z,42.38
2018-06-05T17:57:15.264Z,41.49
2018-06-05T17:59:45.130Z,41.86
2018-06-05T18:02:14.613Z,42.42
2018-06-05T18:04:44.216Z,42.49
2018-06-05T18:07:14.937Z,42.24
2018-06-05T18:09:44.695Z,42.38
2018-06-05T18:12:14.944Z,42.72
2018-06-05T18:14:45.634Z,43.43
2018-06-05T18:17:16.084Z,43.73
2018-06-05T18:19:45.550Z,43.61
2018-06-05T18:22:16.801Z,44.41
2018-06-05T18:24:46.937Z,44.26
2018-06-05T18:27:16.986Z,44.64
2018-06-05T18:29:49.068Z,45.57
2018-06-05T18:32:21.747Z,45.11
2018-06-05T18:34:51.504Z,47.67
2018-06-05T18:37:22.613Z,46.74
2018-06-05T18:39:52.073Z,49.08
2018-06-05T18:42:21.772Z,47.97
2018-06-05T18:44:51.521Z,49.45
2018-06-05T18:47:21.125Z,50.09
2018-06-05T18:49:50.940Z,50.42
2018-06-05T18:52:21.514Z,50.39
2018-06-05T18:54:51.021Z,50.60
2018-06-05T18:57:21.395Z,51.83
2018-06-05T18:59:50.827Z,50.75
2018-06-05T19:02:20.778Z,51.65
2018-06-05T19:04:50.655Z,51.34
2018-06-05T19:07:20.818Z,51.30
2018-06-05T19:09:50.381Z,50.99
2018-06-05T19:12:23.036Z,50.78
2018-06-05T19:14:54.371Z,52.32
2018-06-05T19:17:27.648Z,51.54
2018-06-05T19:19:57.584Z,51.15
2018-06-05T19:22:27.833Z,50.97
2018-06-05T19:24:58.359Z,51.93
2018-06-05T19:27:27.941Z,50.91
2018-06-05T19:29:59.583Z,50.64
2018-06-05T19:32:30.271Z,50.76
2018-06-05T19:35:00.127Z,50.71
2018-06-05T19:37:29.781Z,50.74
2018-06-05T19:40:00.418Z,50.72
2018-06-05T19:42:31.779Z,50.92
2018-06-05T19:45:01.459Z,51.14
2018-06-05T19:47:32.241Z,51.03
2018-06-05T19:50:02.328Z,51.05
2018-06-05T19:52:32.451Z,51.23
2018-06-05T19:55:04.735Z,51.50
2018-06-05T19:57:35.573Z,52.35
2018-06-05T20:00:06.837Z,52.27
2018-06-05T20:02:38.456Z,52.37
2018-06-05T20:05:08.927Z,52.43
2018-06-05T20:07:38.523Z,52.17
2018-06-05T20:10:09.875Z,52.46
2018-06-05T20:12:41.461Z,52.66
2018-06-05T20:15:11.958Z,52.86
2018-06-05T20:17:43.546Z,52.80
2018-06-05T20:20:14.744Z,53.34
2018-06-05T20:22:50.147Z,53.86
2018-06-05T20:25:22.725Z,53.92
2018-06-05T20:27:54.056Z,54.19
2018-06-05T20:30:26.170Z,54.03
2018-06-05T20:32:57.458Z,54.48
2018-06-05T20:35:29.716Z,54.42
2018-06-05T20:38:04.038Z,54.00
2018-06-05T20:40:34.492Z,54.58
2018-06-05T20:43:08.910Z,55.33
2018-06-05T20:45:40.854Z,55.87
2018-06-05T20:48:12.333Z,55.45
2018-06-05T20:50:43.953Z,55.72
2018-06-05T20:53:14.966Z,57.54
2018-06-05T20:55:44.875Z,60.70
2018-06-05T20:58:15.038Z,62.50
2018-06-05T21:00:45.000Z,61.10
2018-06-05T21:03:14.557Z,58.76
2018-06-05T21:05:45.585Z,57.83
2018-06-05T21:08:15.251Z,58.42
2018-06-05T21:10:44.763Z,60.57
2018-06-05T21:13:14.749Z,59.09
2018-06-05T21:15:45.626Z,58.39
2018-06-05T21:18:15.791Z,62.28
2018-06-05T21:20:45.576Z,62.18
2018-06-05T21:23:15.556Z,63.05
2018-06-05T21:25:44.872Z,60.45
2018-06-05T21:28:14.428Z,59.04
2018-06-05T21:30:44.291Z,58.65
2018-06-05T21:33:13.573Z,58.04
2018-06-05T21:35:44.012Z,58.19
2018-06-05T21:38:14.566Z,58.45
2018-06-05T21:40:45.354Z,58.44
2018-06-05T21:43:17.903Z,57.65
2018-06-05T21:45:49.860Z,58.07
2018-06-05T21:48:21.264Z,58.11
2018-06-05T21:50:55.370Z,57.53
2018-06-05T21:53:28.317Z,57.71
2018-06-05T21:56:01.476Z,58.31
2018-06-05T21:58:32.906Z,58.33
2018-06-05T22:01:04.527Z,59.03
2018-06-05T22:03:36.429Z,58.77
2018-06-05T22:06:06.592Z,61.61
2018-06-05T22:08:36.341Z,59.26
2018-06-05T22:11:06.500Z,59.53
2018-06-05T22:13:36.016Z,59.92
2018-06-05T22:16:06.638Z,59.11
2018-06-05T22:18:40.781Z,59.48
2018-06-05T22:21:11.476Z,63.03
2018-06-05T22:23:42.917Z,63.02
2018-06-05T22:26:13.219Z,68.02
2018-06-05T22:28:44.123Z,71.08
2018-06-05T22:31:14.759Z,70.72
2018-06-05T22:33:45.196Z,67.77
2018-06-05T22:36:15.034Z,64.67
2018-06-05T22:38:45.139Z,68.53
2018-06-05T22:41:15.085Z,70.89
2018-06-05T22:43:44.708Z,71.05
2018-06-05T22:46:18.592Z,71.83
2018-06-05T22:48:48.646Z,70.56
2018-06-05T22:51:22.239Z,71.24
2018-06-05T22:53:52.598Z,71.68
2018-06-05T22:56:22.736Z,71.83
2018-06-05T22:58:52.239Z,73.20
2018-06-05T23:01:22.098Z,73.14
2018-06-05T23:03:51.651Z,73.49
2018-06-05T23:06:21.010Z,73.56
2018-06-05T23:08:51.676Z,74.17
2018-06-05T23:11:21.320Z,74.36
2018-06-05T23:13:50.694Z,75.04
2018-06-05T23:16:21.116Z,71.13
2018-06-05T23:18:50.399Z,71.07
2018-06-05T23:21:19.797Z,73.32
2018-06-05T23:23:49.402Z,73.78
2018-06-05T23:26:18.953Z,74.42
2018-06-05T23:28:48.868Z,73.96
2018-06-05T23:31:18.519Z,72.78
2018-06-05T23:33:48.263Z,73.39
2018-06-05T23:36:18.207Z,74.28
2018-06-05T23:38:48.173Z,74.83
2018-06-05T23:41:17.594Z,73.26
2018-06-05T23:43:46.878Z,74.95
2018-06-05T23:46:17.846Z,74.80
2018-06-05T23:48:47.459Z,74.63
2018-06-05T23:51:17.947Z,75.35
2018-06-05T23:53:47.376Z,73.12
2018-06-05T23:56:17.138Z,74.79
2018-06-05T23:58:46.759Z,76.59
